Time,TemperatureF,DewpointF,PressureIn,WindDirection,WindDirectionDegrees,WindSpeedMPH,WindSpeedGustMPH,Humidity,HourlyPrecipIn,Conditions,Clouds,dailyrainin,SoftwareType,DateUTC
2013-10-03 00:00:00,61.7,60.0,30.06,SW,225,0.0,1.0,94,0.00,,---,0.00,VWS V13.01,2013-10-03 04:00:00,
2013-10-03 00:01:00,61.8,60.1,30.06,SW,225,0.0,1.0,94,0.00,,---,0.00,VWS V13.01,2013-10-03 04:01:00,
2013-10-03 00:02:00,61.8,60.1,30.06,SW,225,0.0,1.0,94,0.00,,---,0.00,VWS V13.01,2013-10-03 04:02:00,
2013-10-03 00:07:00,61.8,60.1,30.06,SW,225,0.0,1.0,94,0.00,,---,0.00,VWS V13.01,2013-10-03 04:07:00,
2013-10-03 00:12:00,61.8,60.1,30.06,SW,225,0.0,1.0,94,0.00,,---,0.00,VWS V13.01,2013-10-03 04:12:00,
2013-10-03 00:17:00,61.8,60.1,30.06,SW,225,0.0,1.0,94,0.00,,---,0.00,VWS V13.01,2013-10-03 04:17:00,
2013-10-03 00:22:00,61.8,60.1,30.06,SW,225,0.0,1.0,94,0.00,,---,0.00,VWS V13.01,2013-10-03 04:22:00,
2013-10-03 00:27:00,61.5,59.8,30.06,SW,225,0.0,1.0,94,0.00,,---,0.00,VWS V13.01,2013-10-03 04:27:00,
2013-10-03 00:32:00,61.3,59.6,30.06,SW,225,0.0,0.0,94,0.00,,---,0.00,VWS V13.01,2013-10-03 04:32:00,
2013-10-03 00:37:00,61.2,59.2,30.06,SW,225,1.0,1.0,93,0.00,,---,0.00,VWS V13.01,2013-10-03 04:37:00,
2013-10-03 00:42:00,61.0,59.3,30.06,SW,225,0.0,0.0,94,0.00,,---,0.00,VWS V13.01,2013-10-03 04:42:00,
2013-10-03 00:47:00,60.9,59.2,30.06,SW,225,0.0,0.0,94,0.00,,---,0.00,VWS V13.01,2013-10-03 04:47:00,
2013-10-03 00:52:00,60.8,59.1,30.06,SW,225,0.0,0.0,94,0.00,,---,0.00,VWS V13.01,2013-10-03 04:52:00,
2013-10-03 00:57:00,60.7,59.0,30.06,SW,225,0.0,0.0,94,0.00,,---,0.00,VWS V13.01,2013-10-03 04:57:00,
2013-10-03 01:02:00,60.5,58.8,30.06,SW,225,0.0,1.0,94,0.00,,---,0.00,VWS V13.01,2013-10-03 05:02:00,
2013-10-03 01:07:00,60.4,58.7,30.06,SW,225,0.0,1.0,94,0.00,,---,0.00,VWS V13.01,2013-10-03 05:07:00,
2013-10-03 01:12:00,60.3,58.6,30.06,SW,225,0.0,0.0,94,0.00,,---,0.00,VWS V13.01,2013-10-03 05:12:00,
2013-10-03 01:17:00,60.2,58.5,30.06,SW,225,0.0,0.0,94,0.00,,---,0.00,VWS V13.01,2013-10-03 05:17:00,
2013-10-03 01:22:00,60.0,58.3,30.06,SW,225,0.0,0.0,94,0.00,,---,0.00,VWS V13.01,2013-10-03 05:22:00,
2013-10-03 01:27:00,59.9,58.2,30.06,SW,225,0.0,0.0,94,0.00,,---,0.00,VWS V13.01,2013-10-03 05:27:00,
2013-10-03 01:32:00,59.7,58.0,30.06,SW,225,0.0,0.0,94,0.00,,---,0.00,VWS V13.01,2013-10-03 05:32:00,
2013-10-03 01:37:00,59.6,58.2,30.06,SW,225,0.0,1.0,95,0.00,,---,0.00,VWS V13.01,2013-10-03 05:37:00,
2013-10-03 01:42:00,59.6,58.2,30.06,SW,225,0.0,0.0,95,0.00,,---,0.00,VWS V13.01,2013-10-03 05:42:00,
2013-10-03 01:47:00,59.4,57.7,30.07,SW,225,0.0,0.0,94,0.00,,---,0.00,VWS V13.01,2013-10-03 05:47:00,
2013-10-03 01:52:00,59.3,57.6,30.07,SW,225,0.0,0.0,94,0.00,,---,0.00,VWS V13.01,2013-10-03 05:52:00,
2013-10-03 01:57:00,59.2,57.5,30.07,SW,225,0.0,0.0,94,0.00,,---,0.00,VWS V13.01,2013-10-03 05:57:00,
2013-10-03 02:02:00,59.1,57.7,30.07,SW,225,0.0,0.0,95,0.00,,---,0.00,VWS V13.01,2013-10-03 06:02:00,
2013-10-03 02:07:00,59.1,57.7,30.07,SW,225,0.0,0.0,95,0.00,,---,0.00,VWS V13.01,2013-10-03 06:07:00,
2013-10-03 02:12:00,59.2,57.8,30.06,SW,225,0.0,0.0,95,0.00,,---,0.00,VWS V13.01,2013-10-03 06:12:00,
2013-10-03 02:17:00,59.2,57.8,30.06,SW,225,0.0,0.0,95,0.00,,---,0.00,VWS V13.01,2013-10-03 06:17:00,
2013-10-03 02:22:00,59.2,57.8,30.06,SW,225,0.0,0.0,95,0.00,,---,0.00,VWS V13.01,2013-10-03 06:22:00,
2013-10-03 02:27:00,59.2,57.8,30.06,SW,225,0.0,0.0,95,0.00,,---,0.00,VWS V13.01,2013-10-03 06:27:00,
2013-10-03 02:32:00,59.1,57.7,30.06,SW,225,0.0,0.0,95,0.00,,---,0.00,VWS V13.01,2013-10-03 06:32:00,
2013-10-03 02:37:00,59.0,57.6,30.06,SW,225,0.0,0.0,95,0.00,,---,0.00,VWS V13.01,2013-10-03 06:37:00,
2013-10-03 02:42:00,58.8,57.4,30.06,SW,225,0.0,0.0,95,0.00,,---,0.00,VWS V13.01,2013-10-03 06:42:00,
2013-10-03 02:47:00,58.7,57.3,30.06,SW,225,0.0,0.0,95,0.00,,---,0.00,VWS V13.01,2013-10-03 06:47:00,
2013-10-03 02:52:00,58.6,57.2,30.06,SW,225,0.0,0.0,95,0.00,,---,0.00,VWS V13.01,2013-10-03 06:52:00,
2013-10-03 02:57:00,58.5,57.1,30.06,SW,225,0.0,0.0,95,0.00,,---,0.00,VWS V13.01,2013-10-03 06:57:00,
2013-10-03 03:02:00,58.5,57.1,30.06,SW,225,0.0,0.0,95,0.00,,---,0.00,VWS V13.01,2013-10-03 07:02:00,
2013-10-03 03:07:00,58.4,57.0,30.06,SW,225,0.0,0.0,95,0.00,,---,0.00,VWS V13.01,2013-10-03 07:07:00,
2013-10-03 03:12:00,58.3,56.9,30.06,SW,225,0.0,0.0,95,0.00,,---,0.00,VWS V13.01,2013-10-03 07:12:00,
2013-10-03 03:17:00,58.2,56.8,30.06,SW,225,0.0,0.0,95,0.00,,---,0.00,VWS V13.01,2013-10-03 07:17:00,
2013-10-03 03:22:00,58.1,56.7,30.06,SW,225,0.0,0.0,95,0.00,,---,0.00,VWS V13.01,2013-10-03 07:22:00,
2013-10-03 03:27:00,58.2,56.8,30.06,SW,225,0.0,0.0,95,0.00,,---,0.00,VWS V13.01,2013-10-03 07:27:00,
2013-10-03 03:32:00,58.1,56.7,30.06,SW,225,0.0,0.0,95,0.00,,---,0.00,VWS V13.01,2013-10-03 07:32:00,
2013-10-03 03:37:00,58.1,57.0,30.06,SW,225,0.0,0.0,96,0.00,,---,0.00,VWS V13.01,2013-10-03 07:37:00,
2013-10-03 03:42:00,58.1,57.0,30.06,SW,225,0.0,0.0,96,0.00,,---,0.00,VWS V13.01,2013-10-03 07:42:00,
2013-10-03 03:47:00,58.2,57.1,30.06,SW,225,0.0,0.0,96,0.00,,---,0.00,VWS V13.01,2013-10-03 07:47:00,
2013-10-03 03:52:00,58.2,57.1,30.06,SW,225,0.0,0.0,96,0.00,,---,0.00,VWS V13.01,2013-10-03 07:52:00,
2013-10-03 03:57:00,58.2,57.1,30.06,SW,225,0.0,0.0,96,0.00,,---,0.00,VWS V13.01,2013-10-03 07:57:00,
2013-10-03 04:02:00,58.1,57.0,30.06,SW,225,0.0,0.0,96,0.00,,---,0.00,VWS V13.01,2013-10-03 08:02:00,
2013-10-03 04:07:00,58.1,57.0,30.06,SW,225,0.0,1.0,96,0.00,,---,0.00,VWS V13.01,2013-10-03 08:07:00,
2013-10-03 04:12:00,58.2,57.1,30.06,SW,225,0.0,0.0,96,0.00,,---,0.00,VWS V13.01,2013-10-03 08:12:00,
2013-10-03 04:17:00,58.3,57.2,30.06,SW,225,0.0,0.0,96,0.00,,---,0.00,VWS V13.01,2013-10-03 08:17:00,
2013-10-03 04:22:00,58.3,57.2,30.06,SW,225,0.0,0.0,96,0.00,,---,0.00,VWS V13.01,2013-10-03 08:22:00,
2013-10-03 04:27:00,58.1,57.0,30.06,SW,225,0.0,0.0,96,0.00,,---,0.00,VWS V13.01,2013-10-03 08:27:00,
2013-10-03 04:32:00,58.0,56.9,30.06,SW,225,0.0,0.0,96,0.00,,---,0.00,VWS V13.01,2013-10-03 08:32:00,
2013-10-03 04:37:00,57.9,56.8,30.06,SW,225,0.0,0.0,96,0.00,,---,0.00,VWS V13.01,2013-10-03 08:37:00,
2013-10-03 04:42:00,57.8,56.7,30.06,SW,225,0.0,0.0,96,0.00,,---,0.00,VWS V13.01,2013-10-03 08:42:00,
2013-10-03 04:47:00,57.7,56.6,30.06,SW,225,0.0,0.0,96,0.00,,---,0.00,VWS V13.01,2013-10-03 08:47:00,
2013-10-03 04:52:00,57.6,56.5,30.07,SW,225,0.0,0.0,96,0.00,,---,0.00,VWS V13.01,2013-10-03 08:52:00,
2013-10-03 04:57:00,57.6,56.5,30.07,SW,225,0.0,0.0,96,0.00,,---,0.00,VWS V13.01,2013-10-03 08:57:00,
2013-10-03 05:02:00,57.5,56.4,30.07,SW,225,0.0,0.0,96,0.00,,---,0.00,VWS V13.01,2013-10-03 09:02:00,
2013-10-03 05:07:00,57.5,56.4,30.07,SW,225,0.0,0.0,96,0.00,,---,0.00,VWS V13.01,2013-10-03 09:07:00,
2013-10-03 05:12:00,57.4,56.3,30.07,SW,225,0.0,0.0,96,0.00,,---,0.00,VWS V13.01,2013-10-03 09:12:00,
2013-10-03 05:17:00,57.3,56.2,30.06,SW,225,0.0,0.0,96,0.00,,---,0.00,VWS V13.01,2013-10-03 09:17:00,
2013-10-03 05:22:00,57.2,56.1,30.07,SW,225,0.0,0.0,96,0.00,,---,0.00,VWS V13.01,2013-10-03 09:22:00,
2013-10-03 05:27:00,57.1,56.0,30.07,SW,225,0.0,0.0,96,0.00,,---,0.00,VWS V13.01,2013-10-03 09:27:00,
2013-10-03 05:32:00,57.0,55.9,30.07,SW,225,0.0,0.0,96,0.00,,---,0.00,VWS V13.01,2013-10-03 09:32:00,
2013-10-03 05:37:00,56.9,55.8,30.07,SW,225,0.0,0.0,96,0.00,,---,0.00,VWS V13.01,2013-10-03 09:37:00,
2013-10-03 05:42:00,56.7,55.6,30.07,SW,225,0.0,0.0,96,0.00,,---,0.00,VWS V13.01,2013-10-03 09:42:00,
2013-10-03 05:47:00,56.7,55.6,30.07,SW,225,0.0,0.0,96,0.00,,---,0.00,VWS V13.01,2013-10-03 09:47:00,
2013-10-03 05:52:00,56.7,55.6,30.07,SW,225,0.0,0.0,96,0.00,,---,0.00,VWS V13.01,2013-10-03 09:52:00,
2013-10-03 05:57:00,56.7,55.6,30.07,SW,225,0.0,0.0,96,0.00,,---,0.00,VWS V13.01,2013-10-03 09:57:00,
2013-10-03 06:02:00,56.8,55.7,30.07,SW,225,0.0,0.0,96,0.00,,---,0.00,VWS V13.01,2013-10-03 10:02:00,
2013-10-03 06:07:00,56.8,55.7,30.07,SW,225,0.0,0.0,96,0.00,,---,0.00,VWS V13.01,2013-10-03 10:07:00,
2013-10-03 06:12:00,56.8,55.7,30.07,SW,225,0.0,0.0,96,0.00,,---,0.00,VWS V13.01,2013-10-03 10:12:00,
2013-10-03 06:17:00,56.7,55.6,30.07,SW,225,0.0,0.0,96,0.00,,---,0.00,VWS V13.01,2013-10-03 10:17:00,
2013-10-03 06:22:00,56.6,55.5,30.07,SW,225,0.0,0.0,96,0.00,,---,0.00,VWS V13.01,2013-10-03 10:22:00,
2013-10-03 06:27:00,56.6,55.5,30.07,SW,225,0.0,0.0,96,0.00,,---,0.00,VWS V13.01,2013-10-03 10:27:00,
2013-10-03 06:32:00,56.7,55.6,30.07,SW,225,0.0,1.0,96,0.00,,---,0.00,VWS V13.01,2013-10-03 10:32:00,
2013-10-03 06:37:00,56.8,55.7,30.07,SW,225,1.0,2.0,96,0.00,,---,0.00,VWS V13.01,2013-10-03 10:37:00,
2013-10-03 06:42:00,57.0,56.2,30.07,SW,225,0.0,1.0,97,0.00,,---,0.00,VWS V13.01,2013-10-03 10:42:00,
2013-10-03 06:47:00,57.0,56.2,30.07,SW,225,0.0,1.0,97,0.00,,---,0.00,VWS V13.01,2013-10-03 10:47:00,
2013-10-03 06:52:00,57.0,55.9,30.07,SW,225,0.0,0.0,96,0.00,,---,0.00,VWS V13.01,2013-10-03 10:52:00,
2013-10-03 06:57:00,57.0,55.9,30.08,SW,225,0.0,0.0,96,0.00,,---,0.00,VWS V13.01,2013-10-03 10:57:00,
2013-10-03 07:02:00,57.0,55.9,30.08,SW,225,0.0,0.0,96,0.00,,---,0.00,VWS V13.01,2013-10-03 11:02:00,
2013-10-03 07:07:00,56.9,55.8,30.08,SW,225,0.0,0.0,96,0.00,,---,0.00,VWS V13.01,2013-10-03 11:07:00,
2013-10-03 07:12:00,56.9,55.8,30.08,SW,225,0.0,0.0,96,0.00,,---,0.00,VWS V13.01,2013-10-03 11:12:00,
2013-10-03 07:17:00,56.9,55.8,30.08,SW,225,0.0,0.0,96,0.00,,---,0.00,VWS V13.01,2013-10-03 11:17:00,
2013-10-03 07:22:00,56.9,55.8,30.08,SW,225,0.0,0.0,96,0.00,,---,0.00,VWS V13.01,2013-10-03 11:22:00,
2013-10-03 07:27:00,56.8,55.7,30.08,SW,225,0.0,0.0,96,0.00,,---,0.00,VWS V13.01,2013-10-03 11:27:00,
2013-10-03 07:32:00,56.8,55.7,30.08,SW,225,0.0,0.0,96,0.00,,---,0.00,VWS V13.01,2013-10-03 11:32:00,
2013-10-03 07:37:00,56.7,55.6,30.08,SW,225,0.0,0.0,96,0.00,,---,0.00,VWS V13.01,2013-10-03 11:37:00,
2013-10-03 07:42:00,56.7,55.6,30.08,SW,225,0.0,0.0,96,0.00,,---,0.00,VWS V13.01,2013-10-03 11:42:00,
2013-10-03 07:47:00,56.8,56.0,30.08,SW,225,0.0,0.0,97,0.00,,---,0.00,VWS V13.01,2013-10-03 11:47:00,
2013-10-03 07:52:00,57.0,56.2,30.08,SW,225,0.0,0.0,97,0.00,,---,0.00,VWS V13.01,2013-10-03 11:52:00,
2013-10-03 07:57:00,57.2,56.4,30.08,SW,225,0.0,0.0,97,0.00,,---,0.00,VWS V13.01,2013-10-03 11:57:00,
2013-10-03 08:02:00,57.4,56.6,30.08,SW,225,0.0,0.0,97,0.00,,---,0.00,VWS V13.01,2013-10-03 12:02:00,
2013-10-03 08:07:00,57.6,56.8,30.08,SW,225,0.0,0.0,97,0.00,,---,0.00,VWS V13.01,2013-10-03 12:07:00,
2013-10-03 08:12:00,57.9,57.1,30.08,SW,225,0.0,0.0,97,0.00,,---,0.00,VWS V13.01,2013-10-03 12:12:00,
2013-10-03 08:17:00,58.3,57.5,30.08,SW,225,0.0,1.0,97,0.00,,---,0.00,VWS V13.01,2013-10-03 12:17:00,
2013-10-03 08:22:00,58.6,57.8,30.08,SW,225,0.0,0.0,97,0.00,,---,0.00,VWS V13.01,2013-10-03 12:22:00,
2013-10-03 08:27:00,58.9,58.0,30.08,SW,225,0.0,0.0,97,0.00,,---,0.00,VWS V13.01,2013-10-03 12:27:00,
2013-10-03 08:32:00,59.3,58.5,30.08,SW,225,0.0,1.0,97,0.00,,---,0.00,VWS V13.01,2013-10-03 12:32:00,
2013-10-03 08:37:00,59.6,58.8,30.08,SW,225,0.0,1.0,97,0.00,,---,0.00,VWS V13.01,2013-10-03 12:37:00,
2013-10-03 08:42:00,59.8,59.0,30.09,SW,225,0.0,2.0,97,0.00,,---,0.00,VWS V13.01,2013-10-03 12:42:00,
2013-10-03 08:47:00,59.9,59.0,30.08,SW,225,0.0,2.0,97,0.00,,---,0.00,VWS V13.01,2013-10-03 12:47:00,
2013-10-03 08:52:00,60.1,59.2,30.08,SW,225,0.0,1.0,97,0.00,,---,0.00,VWS V13.01,2013-10-03 12:52:00,
2013-10-03 08:57:00,60.5,59.7,30.08,SW,225,0.0,1.0,97,0.00,,---,0.00,VWS V13.01,2013-10-03 12:57:00,
2013-10-03 09:02:00,61.1,60.2,30.09,SW,225,0.0,1.0,97,0.00,,---,0.00,VWS V13.01,2013-10-03 13:02:00,
2013-10-03 09:07:00,61.6,60.7,30.08,SW,225,0.0,1.0,97,0.00,,---,0.00,VWS V13.01,2013-10-03 13:07:00,
2013-10-03 09:12:00,61.9,61.0,30.09,SW,225,0.0,0.0,97,0.00,,---,0.00,VWS V13.01,2013-10-03 13:12:00,
2013-10-03 09:17:00,62.2,61.3,30.09,SW,225,0.0,1.0,97,0.00,,---,0.00,VWS V13.01,2013-10-03 13:17:00,
2013-10-03 09:22:00,62.5,61.6,30.09,SW,225,0.0,1.0,97,0.00,,---,0.00,VWS V13.01,2013-10-03 13:22:00,
2013-10-03 09:27:00,63.2,62.3,30.09,SW,225,0.0,1.0,97,0.00,,---,0.00,VWS V13.01,2013-10-03 13:27:00,
2013-10-03 09:32:00,63.8,62.6,30.09,SW,225,0.0,0.0,96,0.00,,---,0.00,VWS V13.01,2013-10-03 13:32:00,
2013-10-03 09:37:00,64.4,63.2,30.09,SW,225,0.0,1.0,96,0.00,,---,0.00,VWS V13.01,2013-10-03 13:37:00,
2013-10-03 09:42:00,64.9,63.1,30.09,SW,225,0.0,0.0,94,0.00,,---,0.00,VWS V13.01,2013-10-03 13:42:00,
2013-10-03 09:47:00,65.5,63.4,30.09,SW,225,1.0,1.0,93,0.00,,---,0.00,VWS V13.01,2013-10-03 13:47:00,
2013-10-03 09:52:00,66.3,64.2,30.09,SW,225,0.0,1.0,93,0.00,,---,0.00,VWS V13.01,2013-10-03 13:52:00,
2013-10-03 09:57:00,67.1,64.1,30.09,SW,225,0.0,3.0,90,0.00,,---,0.00,VWS V13.01,2013-10-03 13:57:00,
2013-10-03 10:02:00,67.8,64.4,30.08,SW,225,0.0,1.0,89,0.00,,---,0.00,VWS V13.01,2013-10-03 14:02:00,
2013-10-03 10:07:00,68.5,64.5,30.08,SW,225,1.0,1.0,87,0.00,,---,0.00,VWS V13.01,2013-10-03 14:07:00,
2013-10-03 10:12:00,69.0,64.3,30.08,SW,225,2.0,2.0,85,0.00,,---,0.00,VWS V13.01,2013-10-03 14:12:00,
2013-10-03 10:17:00,69.4,64.4,30.08,SW,225,1.0,2.0,84,0.00,,---,0.00,VWS V13.01,2013-10-03 14:17:00,
2013-10-03 10:22:00,69.8,64.4,30.08,SW,225,1.0,2.0,83,0.00,,---,0.00,VWS V13.01,2013-10-03 14:22:00,
2013-10-03 10:27:00,70.4,65.3,30.08,SW,225,0.0,2.0,84,0.00,,---,0.00,VWS V13.01,2013-10-03 14:27:00,
2013-10-03 10:32:00,71.2,65.4,30.08,SSW,205,3.0,3.0,82,0.00,,---,0.00,VWS V13.01,2013-10-03 14:32:00,
2013-10-03 10:37:00,72.1,65.6,30.08,SSW,200,1.0,3.0,80,0.00,,---,0.00,VWS V13.01,2013-10-03 14:37:00,
2013-10-03 10:42:00,72.8,65.9,30.08,SSW,193,2.0,3.0,79,0.00,,---,0.00,VWS V13.01,2013-10-03 14:42:00,
2013-10-03 10:47:00,73.2,65.9,30.08,SW,234,4.0,5.0,78,0.00,,---,0.00,VWS V13.01,2013-10-03 14:47:00,
2013-10-03 10:52:00,73.3,65.7,30.08,SW,227,2.0,6.0,77,0.00,,---,0.00,VWS V13.01,2013-10-03 14:52:00,
2013-10-03 10:57:00,73.5,65.5,30.08,WSW,252,3.0,6.0,76,0.00,,---,0.00,VWS V13.01,2013-10-03 14:57:00,
2013-10-03 11:02:00,73.7,65.7,30.08,SW,229,2.0,5.0,76,0.00,,---,0.00,VWS V13.01,2013-10-03 15:02:00,
2013-10-03 11:07:00,73.9,65.9,30.08,WSW,243,8.0,8.0,76,0.00,,---,0.00,VWS V13.01,2013-10-03 15:07:00,
2013-10-03 11:12:00,74.2,65.4,30.08,SSW,197,4.0,7.0,74,0.00,,---,0.00,VWS V13.01,2013-10-03 15:12:00,
2013-10-03 11:17:00,74.5,65.7,30.07,SSW,209,4.0,7.0,74,0.00,,---,0.00,VWS V13.01,2013-10-03 15:17:00,
2013-10-03 11:22:00,75.0,66.2,30.07,SSW,209,3.0,7.0,74,0.00,,---,0.00,VWS V13.01,2013-10-03 15:22:00,
2013-10-03 11:27:00,75.7,66.0,30.07,SW,225,5.0,7.0,72,0.00,,---,0.00,VWS V13.01,2013-10-03 15:27:00,
2013-10-03 11:32:00,76.4,67.1,30.07,SW,229,3.0,5.0,73,0.00,,---,0.00,VWS V13.01,2013-10-03 15:32:00,
2013-10-03 11:37:00,77.0,66.9,30.07,SSW,201,3.0,8.0,71,0.00,,---,0.00,VWS V13.01,2013-10-03 15:37:00,
2013-10-03 11:42:00,77.4,66.9,30.07,SW,215,4.0,7.0,70,0.00,,---,0.00,VWS V13.01,2013-10-03 15:42:00,
2013-10-03 11:47:00,77.5,66.1,30.06,SW,219,6.0,9.0,68,0.00,,---,0.00,VWS V13.01,2013-10-03 15:47:00,
2013-10-03 11:52:00,77.4,66.4,30.06,SSW,199,6.0,6.0,69,0.00,,---,0.00,VWS V13.01,2013-10-03 15:52:00,
2013-10-03 11:57:00,77.7,66.3,30.06,SSE,150,4.0,9.0,68,0.00,,---,0.00,VWS V13.01,2013-10-03 15:57:00,
2013-10-03 12:02:00,78.1,66.3,30.06,SW,228,2.0,7.0,67,0.00,,---,0.00,VWS V13.01,2013-10-03 16:02:00,
2013-10-03 12:07:00,78.3,66.0,30.06,SW,229,2.0,13.0,66,0.00,,---,0.00,VWS V13.01,2013-10-03 16:07:00,
2013-10-03 12:12:00,78.4,65.7,30.06,SW,219,7.0,10.0,65,0.00,,---,0.00,VWS V13.01,2013-10-03 16:12:00,
2013-10-03 12:17:00,78.6,65.9,30.05,SSW,200,5.0,13.0,65,0.00,,---,0.00,VWS V13.01,2013-10-03 16:17:00,
2013-10-03 12:22:00,78.8,65.6,30.05,South,185,5.0,11.0,64,0.00,,---,0.00,VWS V13.01,2013-10-03 16:22:00,
2013-10-03 12:27:00,78.9,65.7,30.05,SSW,201,11.0,13.0,64,0.00,,---,0.00,VWS V13.01,2013-10-03 16:27:00,
2013-10-03 12:32:00,78.8,65.2,30.05,SW,214,4.0,13.0,63,0.00,,---,0.00,VWS V13.01,2013-10-03 16:32:00,
2013-10-03 12:37:00,78.5,64.9,30.05,SSW,207,8.0,13.0,63,0.00,,---,0.00,VWS V13.01,2013-10-03 16:37:00,
2013-10-03 12:42:00,78.1,65.4,30.05,SSW,213,8.0,11.0,65,0.00,,---,0.00,VWS V13.01,2013-10-03 16:42:00,
2013-10-03 12:47:00,77.9,65.2,30.05,SSW,207,6.0,15.0,65,0.00,,---,0.00,VWS V13.01,2013-10-03 16:47:00,
2013-10-03 12:52:00,77.8,65.5,30.05,WSW,254,6.0,10.0,66,0.00,,---,0.00,VWS V13.01,2013-10-03 16:52:00,
2013-10-03 12:57:00,77.8,65.5,30.05,SSW,209,7.0,10.0,66,0.00,,---,0.00,VWS V13.01,2013-10-03 16:57:00,
2013-10-03 13:02:00,77.8,65.5,30.05,SSW,210,3.0,13.0,66,0.00,,---,0.00,VWS V13.01,2013-10-03 17:02:00,
2013-10-03 13:07:00,77.9,66.1,30.05,SSW,194,3.0,13.0,67,0.00,,---,0.00,VWS V13.01,2013-10-03 17:07:00,
2013-10-03 13:12:00,78.6,65.9,30.05,SW,233,9.0,11.0,65,0.00,,---,0.00,VWS V13.01,2013-10-03 17:12:00,
2013-10-03 13:17:00,78.9,65.7,30.04,SSW,195,13.0,13.0,64,0.00,,---,0.00,VWS V13.01,2013-10-03 17:17:00,
2013-10-03 13:22:00,78.7,65.5,30.04,SSW,211,8.0,12.0,64,0.00,,---,0.00,VWS V13.01,2013-10-03 17:22:00,
2013-10-03 13:27:00,78.6,65.0,30.04,SSW,195,5.0,14.0,63,0.00,,---,0.00,VWS V13.01,2013-10-03 17:27:00,
2013-10-03 13:32:00,78.5,64.9,30.04,SSW,211,10.0,13.0,63,0.00,,---,0.00,VWS V13.01,2013-10-03 17:32:00,
2013-10-03 13:37:00,78.6,65.4,30.04,SSW,209,8.0,13.0,64,0.00,,---,0.00,VWS V13.01,2013-10-03 17:37:00,
2013-10-03 13:42:00,78.8,65.6,30.03,South,174,4.0,14.0,64,0.00,,---,0.00,VWS V13.01,2013-10-03 17:42:00,
2013-10-03 13:47:00,78.9,65.2,30.03,SSE,167,7.0,16.0,63,0.00,,---,0.00,VWS V13.01,2013-10-03 17:47:00,
2013-10-03 13:52:00,79.1,66.3,30.03,SW,229,4.0,9.0,65,0.00,,---,0.00,VWS V13.01,2013-10-03 17:52:00,
2013-10-03 13:57:00,79.2,65.5,30.03,SSW,193,7.0,10.0,63,0.00,,---,0.00,VWS V13.01,2013-10-03 17:57:00,
2013-10-03 14:02:00,78.8,65.2,30.03,SSW,205,3.0,12.0,63,0.00,,---,0.00,VWS V13.01,2013-10-03 18:02:00,
2013-10-03 14:07:00,78.6,65.0,30.03,SW,221,8.0,12.0,63,0.00,,---,0.00,VWS V13.01,2013-10-03 18:07:00,
2013-10-03 14:12:00,78.7,65.1,30.03,WSW,244,7.0,11.0,63,0.00,,---,0.00,VWS V13.01,2013-10-03 18:12:00,
2013-10-03 14:17:00,78.6,65.0,30.03,WSW,244,6.0,12.0,63,0.00,,---,0.00,VWS V13.01,2013-10-03 18:17:00,
2013-10-03 14:22:00,78.4,65.2,30.02,SW,231,4.0,9.0,64,0.00,,---,0.00,VWS V13.01,2013-10-03 18:22:00,
2013-10-03 14:27:00,78.2,65.0,30.02,SW,234,4.0,9.0,64,0.00,,---,0.00,VWS V13.01,2013-10-03 18:27:00,
2013-10-03 14:32:00,78.0,64.8,30.02,SSW,207,3.0,10.0,64,0.00,,---,0.00,VWS V13.01,2013-10-03 18:32:00,
2013-10-03 14:37:00,78.0,65.3,30.02,SSW,203,6.0,10.0,65,0.00,,---,0.00,VWS V13.01,2013-10-03 18:37:00,
2013-10-03 14:42:00,78.3,66.0,30.02,WSW,257,3.0,8.0,66,0.00,,---,0.00,VWS V13.01,2013-10-03 18:42:00,
2013-10-03 14:47:00,78.5,65.3,30.02,SW,229,4.0,10.0,64,0.00,,---,0.00,VWS V13.01,2013-10-03 18:47:00,
2013-10-03 14:52:00,78.6,65.9,30.02,West,281,6.0,8.0,65,0.00,,---,0.00,VWS V13.01,2013-10-03 18:52:00,
2013-10-03 14:57:00,78.4,65.2,30.02,SW,230,4.0,8.0,64,0.00,,---,0.00,VWS V13.01,2013-10-03 18:57:00,
2013-10-03 15:02:00,78.1,65.8,30.02,West,266,7.0,7.0,66,0.00,,---,0.00,VWS V13.01,2013-10-03 19:02:00,
2013-10-03 15:07:00,77.9,65.2,30.02,WSW,247,4.0,11.0,65,0.00,,---,0.00,VWS V13.01,2013-10-03 19:07:00,
2013-10-03 15:12:00,77.7,65.0,30.02,WSW,243,2.0,7.0,65,0.00,,---,0.00,VWS V13.01,2013-10-03 19:12:00,
2013-10-03 15:17:00,77.6,65.3,30.02,WSW,245,3.0,8.0,66,0.00,,---,0.00,VWS V13.01,2013-10-03 19:17:00,
2013-10-03 15:22:00,77.3,65.1,30.01,WSW,248,1.0,6.0,66,0.00,,---,0.00,VWS V13.01,2013-10-03 19:22:00,
2013-10-03 15:27:00,77.2,65.4,30.01,SW,216,6.0,8.0,67,0.00,,---,0.00,VWS V13.01,2013-10-03 19:27:00,
2013-10-03 15:32:00,77.1,65.3,30.01,SW,235,2.0,7.0,67,0.00,,---,0.00,VWS V13.01,2013-10-03 19:32:00,
2013-10-03 15:37:00,76.9,65.5,30.01,SSW,209,0.0,7.0,68,0.00,,---,0.00,VWS V13.01,2013-10-03 19:37:00,
2013-10-03 15:42:00,76.8,65.0,30.01,West,272,3.0,6.0,67,0.00,,---,0.00,VWS V13.01,2013-10-03 19:42:00,
2013-10-03 15:47:00,76.7,65.3,30.01,SW,222,3.0,7.0,68,0.00,,---,0.00,VWS V13.01,2013-10-03 19:47:00,
2013-10-03 15:52:00,76.6,65.3,30.01,WSW,240,2.0,5.0,68,0.00,,---,0.00,VWS V13.01,2013-10-03 19:52:00,
2013-10-03 15:57:00,76.5,65.6,30.01,SSW,213,3.0,5.0,69,0.00,,---,0.00,VWS V13.01,2013-10-03 19:57:00,
2013-10-03 16:02:00,76.5,65.6,30.00,West,261,1.0,6.0,69,0.00,,---,0.00,VWS V13.01,2013-10-03 20:02:00,
2013-10-03 16:07:00,76.5,65.6,30.00,SSW,205,5.0,6.0,69,0.00,,---,0.00,VWS V13.01,2013-10-03 20:07:00,
2013-10-03 16:12:00,76.5,66.0,30.00,SSW,211,2.0,5.0,70,0.00,,---,0.00,VWS V13.01,2013-10-03 20:12:00,
2013-10-03 16:17:00,76.6,65.7,30.00,SW,219,4.0,5.0,69,0.00,,---,0.00,VWS V13.01,2013-10-03 20:17:00,
2013-10-03 16:22:00,76.6,65.7,30.00,SW,223,5.0,6.0,69,0.00,,---,0.00,VWS V13.01,2013-10-03 20:22:00,
2013-10-03 16:27:00,76.6,65.7,30.00,SSW,202,4.0,6.0,69,0.00,,---,0.00,VWS V13.01,2013-10-03 20:27:00,
2013-10-03 16:32:00,76.6,65.7,30.00,SW,219,3.0,5.0,69,0.00,,---,0.00,VWS V13.01,2013-10-03 20:32:00,
2013-10-03 16:37:00,76.5,66.0,30.00,SW,231,5.0,6.0,70,0.00,,---,0.00,VWS V13.01,2013-10-03 20:37:00,
2013-10-03 16:42:00,76.5,66.0,30.00,SSW,211,1.0,3.0,70,0.00,,---,0.00,VWS V13.01,2013-10-03 20:42:00,
2013-10-03 16:47:00,76.6,66.5,30.00,SSW,210,1.0,3.0,71,0.00,,---,0.00,VWS V13.01,2013-10-03 20:47:00,
2013-10-03 16:52:00,77.2,66.7,30.00,SSW,207,1.0,3.0,70,0.00,,---,0.00,VWS V13.01,2013-10-03 20:52:00,
2013-10-03 16:57:00,78.0,67.0,30.00,SSW,199,1.0,3.0,69,0.00,,---,0.00,VWS V13.01,2013-10-03 20:57:00,
2013-10-03 17:02:00,78.7,66.4,30.00,SSW,209,2.0,4.0,66,0.00,,---,0.00,VWS V13.01,2013-10-03 21:02:00,
2013-10-03 17:07:00,78.8,66.9,30.00,SW,232,1.0,4.0,67,0.00,,---,0.00,VWS V13.01,2013-10-03 21:07:00,
2013-10-03 17:12:00,78.8,67.4,30.00,SSW,205,3.0,3.0,68,0.00,,---,0.00,VWS V13.01,2013-10-03 21:12:00,
2013-10-03 17:17:00,78.8,66.9,30.00,SW,229,4.0,4.0,67,0.00,,---,0.00,VWS V13.01,2013-10-03 21:17:00,
2013-10-03 17:22:00,78.8,66.5,30.00,SW,217,3.0,4.0,66,0.00,,---,0.00,VWS V13.01,2013-10-03 21:22:00,
2013-10-03 17:27:00,78.7,66.4,30.00,SW,234,2.0,5.0,66,0.00,,---,0.00,VWS V13.01,2013-10-03 21:27:00,
2013-10-03 17:32:00,78.6,67.2,30.00,SW,234,0.0,3.0,68,0.00,,---,0.00,VWS V13.01,2013-10-03 21:32:00,
2013-10-03 17:37:00,78.6,67.6,30.00,SW,234,0.0,3.0,69,0.00,,---,0.00,VWS V13.01,2013-10-03 21:37:00,
2013-10-03 17:42:00,78.9,67.4,30.00,SW,234,0.0,2.0,68,0.00,,---,0.00,VWS V13.01,2013-10-03 21:42:00,
2013-10-03 17:47:00,79.4,67.9,30.00,SW,234,0.0,2.0,68,0.00,,---,0.00,VWS V13.01,2013-10-03 21:47:00,
2013-10-03 17:52:00,79.7,67.3,30.00,SW,234,2.0,3.0,66,0.00,,---,0.00,VWS V13.01,2013-10-03 21:52:00,
2013-10-03 17:57:00,79.7,67.3,30.00,SW,222,2.0,4.0,66,0.00,,---,0.00,VWS V13.01,2013-10-03 21:57:00,
2013-10-03 18:02:00,79.4,65.7,30.00,SW,222,4.0,9.0,63,0.00,,---,0.00,VWS V13.01,2013-10-03 22:02:00,
2013-10-03 18:07:00,78.9,65.7,30.00,SW,236,7.0,9.0,64,0.00,,---,0.00,VWS V13.01,2013-10-03 22:07:00,
2013-10-03 18:12:00,78.5,65.8,30.00,SW,225,2.0,7.0,65,0.00,,---,0.00,VWS V13.01,2013-10-03 22:12:00,
2013-10-03 18:17:00,78.0,65.3,30.00,SW,221,2.0,9.0,65,0.00,,---,0.00,VWS V13.01,2013-10-03 22:17:00,
2013-10-03 18:22:00,77.7,65.4,30.00,SW,234,2.0,4.0,66,0.00,,---,0.00,VWS V13.01,2013-10-03 22:22:00,
2013-10-03 18:27:00,77.3,65.1,30.00,WSW,250,1.0,4.0,66,0.00,,---,0.00,VWS V13.01,2013-10-03 22:27:00,
2013-10-03 18:32:00,76.9,65.1,30.00,SSW,211,2.0,4.0,67,0.00,,---,0.00,VWS V13.01,2013-10-03 22:32:00,
2013-10-03 18:37:00,76.6,65.3,29.99,SSW,204,2.0,4.0,68,0.00,,---,0.00,VWS V13.01,2013-10-03 22:37:00,
2013-10-03 18:42:00,76.3,65.0,30.00,SW,224,2.0,5.0,68,0.00,,---,0.00,VWS V13.01,2013-10-03 22:42:00,
2013-10-03 18:47:00,76.0,65.1,30.00,SW,223,2.0,5.0,69,0.00,,---,0.00,VWS V13.01,2013-10-03 22:47:00,
2013-10-03 18:52:00,75.7,65.2,30.00,SW,219,1.0,3.0,70,0.00,,---,0.00,VWS V13.01,2013-10-03 22:52:00,
2013-10-03 18:57:00,75.4,64.9,30.00,SW,219,1.0,3.0,70,0.00,,---,0.00,VWS V13.01,2013-10-03 22:57:00,
2013-10-03 19:02:00,75.0,65.4,30.00,SSW,213,0.0,0.0,72,0.00,,---,0.00,VWS V13.01,2013-10-03 23:02:00,
2013-10-03 19:07:00,74.6,65.4,30.00,SSW,213,0.0,1.0,73,0.00,,---,0.00,VWS V13.01,2013-10-03 23:07:00,
2013-10-03 19:12:00,74.1,65.3,30.00,SSW,213,0.0,0.0,74,0.00,,---,0.00,VWS V13.01,2013-10-03 23:12:00,
2013-10-03 19:17:00,73.6,65.6,30.00,SSW,213,0.0,1.0,76,0.00,,---,0.00,VWS V13.01,2013-10-03 23:17:00,
2013-10-03 19:22:00,73.1,65.5,30.00,SSW,213,0.0,0.0,77,0.00,,---,0.00,VWS V13.01,2013-10-03 23:22:00,
2013-10-03 19:27:00,72.7,65.4,30.00,SSW,213,0.0,0.0,78,0.00,,---,0.00,VWS V13.01,2013-10-03 23:27:00,
2013-10-03 19:32:00,72.2,65.0,30.01,SSW,213,0.0,0.0,78,0.00,,---,0.00,VWS V13.01,2013-10-03 23:32:00,
2013-10-03 19:37:00,71.9,65.4,30.01,SSW,213,0.0,0.0,80,0.00,,---,0.00,VWS V13.01,2013-10-03 23:37:00,
2013-10-03 19:42:00,71.5,65.4,30.00,SSW,213,0.0,0.0,81,0.00,,---,0.00,VWS V13.01,2013-10-03 23:42:00,
2013-10-03 19:47:00,71.3,65.5,30.01,SSW,213,0.0,1.0,82,0.00,,---,0.00,VWS V13.01,2013-10-03 23:47:00,
2013-10-03 19:52:00,71.1,65.3,30.01,SSW,213,0.0,0.0,82,0.00,,---,0.00,VWS V13.01,2013-10-03 23:52:00,
2013-10-03 19:57:00,71.0,65.6,30.01,SSW,213,0.0,0.0,83,0.00,,---,0.00,VWS V13.01,2013-10-03 23:57:00,
2013-10-03 20:02:00,70.8,65.4,30.01,SSW,213,0.0,0.0,83,0.00,,---,0.00,VWS V13.01,2013-10-04 00:02:00,
2013-10-03 20:07:00,70.7,65.3,30.01,SSW,213,0.0,1.0,83,0.00,,---,0.00,VWS V13.01,2013-10-04 00:07:00,
2013-10-03 20:12:00,70.6,65.2,30.01,SSW,213,0.0,0.0,83,0.00,,---,0.00,VWS V13.01,2013-10-04 00:12:00,
2013-10-03 20:17:00,70.5,65.1,30.01,SSW,213,0.0,1.0,83,0.00,,---,0.00,VWS V13.01,2013-10-04 00:17:00,
2013-10-03 20:22:00,70.4,65.3,30.01,SSW,213,0.0,1.0,84,0.00,,---,0.00,VWS V13.01,2013-10-04 00:22:00,
2013-10-03 20:27:00,70.4,65.3,30.02,SSW,213,0.0,1.0,84,0.00,,---,0.00,VWS V13.01,2013-10-04 00:27:00,
2013-10-03 20:32:00,70.4,65.3,30.02,SSW,213,0.0,1.0,84,0.00,,---,0.00,VWS V13.01,2013-10-04 00:32:00,
2013-10-03 20:37:00,70.4,65.3,30.02,SSW,213,0.0,1.0,84,0.00,,---,0.00,VWS V13.01,2013-10-04 00:37:00,
2013-10-03 20:42:00,70.3,65.2,30.02,SSW,213,0.0,1.0,84,0.00,,---,0.00,VWS V13.01,2013-10-04 00:42:00,
2013-10-03 20:47:00,70.3,65.6,30.02,SSW,213,0.0,1.0,85,0.00,,---,0.00,VWS V13.01,2013-10-04 00:47:00,
2013-10-03 20:52:00,70.3,65.6,30.02,SSW,213,0.0,1.0,85,0.00,,---,0.00,VWS V13.01,2013-10-04 00:52:00,
2013-10-03 20:57:00,70.3,65.6,30.02,SSW,213,0.0,1.0,85,0.00,,---,0.00,VWS V13.01,2013-10-04 00:57:00,
2013-10-03 21:02:00,70.3,65.6,30.03,SSW,213,0.0,1.0,85,0.00,,---,0.00,VWS V13.01,2013-10-04 01:02:00,
2013-10-03 21:07:00,70.3,65.6,30.03,SSW,213,0.0,1.0,85,0.00,,---,0.00,VWS V13.01,2013-10-04 01:07:00,
2013-10-03 21:12:00,70.2,65.5,30.03,SSW,213,0.0,1.0,85,0.00,,---,0.00,VWS V13.01,2013-10-04 01:12:00,
2013-10-03 21:17:00,70.2,65.8,30.03,SSW,213,0.0,1.0,86,0.00,,---,0.00,VWS V13.01,2013-10-04 01:17:00,
2013-10-03 21:22:00,70.1,65.7,30.03,SSW,213,0.0,0.0,86,0.00,,---,0.00,VWS V13.01,2013-10-04 01:22:00,
2013-10-03 21:27:00,70.0,65.6,30.03,SSW,213,0.0,0.0,86,0.00,,---,0.00,VWS V13.01,2013-10-04 01:27:00,
2013-10-03 21:32:00,69.9,65.5,30.03,SSW,213,0.0,0.0,86,0.00,,---,0.00,VWS V13.01,2013-10-04 01:32:00,
2013-10-03 21:37:00,69.8,65.8,30.04,SSW,213,0.0,0.0,87,0.00,,---,0.00,VWS V13.01,2013-10-04 01:37:00,
2013-10-03 21:42:00,69.7,65.7,30.04,North,350,3.0,5.0,87,0.00,,---,0.00,VWS V13.01,2013-10-04 01:42:00,
2013-10-03 21:47:00,69.7,65.7,30.04,NW,316,1.0,6.0,87,0.00,,---,0.00,VWS V13.01,2013-10-04 01:47:00,
2013-10-03 21:52:00,69.8,65.4,30.04,NW,320,4.0,5.0,86,0.00,,---,0.00,VWS V13.01,2013-10-04 01:52:00,
2013-10-03 21:57:00,69.9,65.2,30.04,North,355,0.0,6.0,85,0.00,,---,0.00,VWS V13.01,2013-10-04 01:57:00,
2013-10-03 22:03:00,70.0,65.3,30.05,NNE,32,3.0,3.0,85,0.00,,---,0.00,VWS V13.01,2013-10-04 02:03:00,
2013-10-03 22:08:00,70.0,65.3,30.05,NE,34,2.0,4.0,85,0.00,,---,0.00,VWS V13.01,2013-10-04 02:08:00,
2013-10-03 22:13:00,70.0,65.6,30.04,NNE,31,0.0,3.0,86,0.00,,---,0.00,VWS V13.01,2013-10-04 02:13:00,
2013-10-03 22:18:00,69.9,65.5,30.04,NNE,32,0.0,3.0,86,0.00,,---,0.00,VWS V13.01,2013-10-04 02:18:00,
2013-10-03 22:23:00,69.7,65.7,30.04,NNE,32,0.0,2.0,87,0.00,,---,0.00,VWS V13.01,2013-10-04 02:23:00,
2013-10-03 22:28:00,69.5,65.5,30.04,NNE,32,0.0,2.0,87,0.00,,---,0.00,VWS V13.01,2013-10-04 02:28:00,
2013-10-03 22:33:00,69.3,65.6,30.04,NNE,32,2.0,3.0,88,0.00,,---,0.00,VWS V13.01,2013-10-04 02:33:00,
2013-10-03 22:38:00,69.1,65.4,30.04,NNE,32,0.0,3.0,88,0.00,,---,0.00,VWS V13.01,2013-10-04 02:38:00,
2013-10-03 22:43:00,68.8,65.1,30.04,ENE,65,3.0,3.0,88,0.00,,---,0.00,VWS V13.01,2013-10-04 02:43:00,
2013-10-03 22:48:00,68.6,65.2,30.04,NE,52,0.0,3.0,89,0.00,,---,0.00,VWS V13.01,2013-10-04 02:48:00,
2013-10-03 22:53:00,68.5,65.1,30.04,NE,52,0.0,0.0,89,0.00,,---,0.00,VWS V13.01,2013-10-04 02:53:00,
2013-10-03 22:58:00,68.3,64.9,30.05,NE,52,0.0,1.0,89,0.00,,---,0.00,VWS V13.01,2013-10-04 02:58:00,
2013-10-03 23:03:00,68.1,64.7,30.04,NE,52,0.0,0.0,89,0.00,,---,0.00,VWS V13.01,2013-10-04 03:03:00,
2013-10-03 23:08:00,67.8,64.8,30.04,NE,52,0.0,0.0,90,0.00,,---,0.00,VWS V13.01,2013-10-04 03:08:00,
2013-10-03 23:13:00,67.6,64.6,30.04,NE,52,0.0,0.0,90,0.00,,---,0.00,VWS V13.01,2013-10-04 03:13:00,
2013-10-03 23:18:00,67.2,64.5,30.03,NE,52,1.0,2.0,91,0.00,,---,0.00,VWS V13.01,2013-10-04 03:18:00,
2013-10-03 23:23:00,67.0,64.3,30.03,NE,52,0.0,0.0,91,0.00,,---,0.00,VWS V13.01,2013-10-04 03:23:00,
2013-10-03 23:28:00,66.7,64.0,30.03,NE,52,0.0,1.0,91,0.00,,---,0.00,VWS V13.01,2013-10-04 03:28:00,
2013-10-03 23:33:00,66.6,64.2,30.03,NE,52,0.0,0.0,92,0.00,,---,0.00,VWS V13.01,2013-10-04 03:33:00,
2013-10-03 23:38:00,66.4,64.0,30.03,NE,52,0.0,0.0,92,0.00,,---,0.00,VWS V13.01,2013-10-04 03:38:00,
2013-10-03 23:43:00,66.3,63.9,30.03,NE,52,0.0,0.0,92,0.00,,---,0.00,VWS V13.01,2013-10-04 03:43:00,
2013-10-03 23:48:00,66.1,63.7,30.03,NE,52,0.0,0.0,92,0.00,,---,0.00,VWS V13.01,2013-10-04 03:48:00,
2013-10-03 23:53:00,65.9,63.5,30.03,NE,52,0.0,0.0,92,0.00,,---,0.00,VWS V13.01,2013-10-04 03:53:00,
2013-10-03 23:58:00,65.7,63.6,30.03,NE,52,1.0,1.0,93,0.00,,---,0.00,VWS V13.01,2013-10-04 03:58:00,